Latest Weather Observations for Horn Island

IDQ60801

Issued at 6:05 pm EST Wednesday 23 April 2014 (issued every 30 minutes, with the page automatically refreshed every 10 minutes)

About weather observations | Map of weather stations | Latest weather observations for QLD | Other Formats
Station Details ID: 027058 Name: HORN ISLAND Lat: -10.58 Lon: 142.29 Height: 4.0 m
Data from the previous 72 hours. | See also: Recent months at Horn Island
Date/Time
EST
Temp
°C
App
Temp
°C
Dew
Point
Rel
Hum
%
Delta-T
°C
Wind Press
QNH
hPa
Press
MSL
hPa
Rain
since 9 am
mm
Dir
 
Spd
km/h
Gust
km/h
Spd
kts
Gust
kts
23/06:00pm 27.9 30.2 24.1 80 2.6 ESE 19 24 10 13 1008.2 1008.2 0.0
23/05:30pm 28.3 30.7 24.3 79 2.8 ESE 19 28 10 15 1007.6 - 0.0
23/05:00pm 28.9 31.1 24.9 79 2.8 ESE 22 32 12 17 1007.3 - 0.0
23/04:30pm 29.0 31.4 25.2 80 2.7 ESE 22 30 12 16 1007.3 - 0.0
23/04:00pm 29.2 31.6 25.2 79 2.8 E 22 28 12 15 1007.6 - 0.0
23/03:30pm 29.4 31.4 25.2 78 3.0 E 24 32 13 17 1007.7 - 0.0
23/03:00pm 29.8 32.2 25.8 79 2.8 ESE 24 32 13 17 1007.9 1007.9 0.0
23/02:30pm 29.9 32.9 26.1 80 2.7 ESE 22 30 12 16 1008.3 - 0.0
23/02:00pm 29.6 32.0 25.8 80 2.7 E 24 32 13 17 1008.6 - 0.0
23/01:30pm 29.6 31.6 25.8 80 2.7 E 26 33 14 18 1008.9 - 0.0
23/01:00pm 29.8 32.3 26.0 80 2.7 E 24 32 13 17 1009.2 - 0.0
23/12:30pm 29.9 32.5 26.1 80 2.7 E 24 35 13 19 1009.7 - 0.0
23/12:00pm 29.6 31.6 25.8 80 2.7 E 26 33 14 18 1009.7 1009.7 0.0
23/11:30am 29.3 30.9 25.7 81 2.5 E 28 35 15 19 1009.8 - 0.0
23/11:00am 29.6 32.3 26.2 82 2.4 E 24 32 13 17 1010.1 - 0.0
23/10:30am 29.7 32.4 26.3 82 2.4 E 24 35 13 19 1010.5 - 0.0
23/10:00am 29.1 31.6 25.9 83 2.3 E 24 33 13 18 1010.6 - 0.0
23/09:30am 29.0 31.5 26.0 84 2.1 E 24 32 13 17 1010.8 - 0.0
23/09:00am 28.7 31.2 25.9 85 2.0 E 24 33 13 18 1010.6 1010.6 1.2
23/08:30am 28.5 31.7 25.9 86 1.8 E 20 35 11 19 1010.7 - 1.2
23/08:00am 28.2 30.6 25.8 87 1.7 E 24 33 13 18 1010.3 - 1.2
23/07:30am 27.9 30.6 25.7 88 1.6 E 22 32 12 17 1010.2 - 1.2
23/07:00am 27.6 30.6 25.6 89 1.4 E 20 28 11 15 1010.0 - 1.2
23/06:30am 27.5 30.5 25.5 89 1.4 E 20 28 11 15 1009.4 - 1.2
23/06:00am 27.5 29.8 25.7 90 1.3 E 24 32 13 17 1009.0 1009.0 1.2
23/05:30am 27.3 29.9 25.5 90 1.3 E 22 32 12 17 1008.7 - 1.2
23/05:00am 27.3 30.4 25.7 91 1.1 E 20 30 11 16 1008.6 - 1.2
23/04:30am 27.2 30.4 25.8 92 1.0 E 20 28 11 15 1008.6 - 1.2
23/04:09am 27.1 30.4 25.7 92 1.0 E 19 28 10 15 1008.5 - 1.2
23/04:00am 27.2 30.2 25.6 91 1.1 E 20 32 11 17 1008.5 - 1.2
23/03:37am 27.2 30.8 25.6 91 1.1 E 17 24 9 13 1008.2 - 1.2
23/03:30am 27.2 30.2 25.6 91 1.1 E 20 26 11 14 1008.2 - 1.2
23/03:26am 27.2 29.9 25.6 91 1.1 E 22 32 12 17 1008.2 - 1.2
23/03:00am 27.3 30.2 25.9 92 1.0 E 22 30 12 16 1008.1 1008.1 1.2
23/02:30am 27.2 29.6 25.8 92 1.0 E 24 35 13 19 1008.3 - 1.0
23/02:18am 27.1 29.8 25.7 92 1.0 E 22 30 12 16 1008.3 - 1.0
23/02:12am 27.0 30.0 25.6 92 1.0 E 20 30 11 16 1008.4 - 1.0
23/02:07am 27.0 29.9 25.4 91 1.1 E 20 30 11 16 1008.5 - 1.0
23/02:00am 26.9 29.4 25.3 91 1.1 E 22 30 12 16 1008.6 - 1.0
23/01:47am 26.9 29.2 25.1 90 1.3 E 22 35 12 19 1008.8 - 0.6
23/01:30am 27.7 31.1 25.9 90 1.3 E 19 24 10 13 1009.1 - 0.2
23/01:00am 27.8 31.0 25.8 89 1.4 E 20 32 11 17 1009.5 - 0.2
23/12:35am 27.8 31.0 25.8 89 1.4 E 20 32 11 17 1009.6 - 0.2
23/12:30am 27.8 30.2 25.8 89 1.4 E 24 32 13 17 1009.6 - 0.2
23/12:29am 27.8 30.6 25.8 89 1.4 E 22 30 12 16 1009.6 - 0.2
23/12:16am 27.8 30.6 25.8 89 1.4 E 22 32 12 17 1010.0 - 0.2
23/12:10am 27.9 30.0 25.9 89 1.4 E 26 33 14 18 1010.0 - 0.2
23/12:00am 27.9 30.0 25.9 89 1.4 E 26 39 14 21 1010.1 1010.1 0.2
 
Date/Time
EST
Temp
°C
App
Temp
°C
Dew
Point
Rel
Hum
%
Delta-T
°C
Wind Press
QNH
hPa
Press
MSL
hPa
Rain
since 9 am
mm
Dir
 
Spd
km/h
Gust
km/h
Spd
kts
Gust
kts
22/11:47pm 27.9 30.4 25.9 89 1.4 E 24 33 13 18 1010.2 - 0.2
22/11:44pm 27.8 30.6 25.8 89 1.4 E 22 33 12 18 1010.2 - 0.2
22/11:30pm 27.8 30.7 26.0 90 1.3 E 22 30 12 16 1010.3 - 0.2
22/11:00pm 27.8 30.2 25.8 89 1.4 E 24 37 13 20 1010.4 - 0.2
22/10:30pm 27.8 29.8 25.8 89 1.4 ESE 26 37 14 20 1010.5 - 0.2
22/10:00pm 27.8 31.0 25.8 89 1.4 E 20 28 11 15 1010.7 - 0.2
22/09:30pm 27.9 29.4 26.1 90 1.3 ESE 30 39 16 21 1010.6 - 0.2
22/09:01pm 27.9 30.5 26.1 90 1.3 E 24 37 13 20 1010.3 - 0.2
22/09:00pm 28.0 30.7 26.2 90 1.3 E 24 37 13 20 1010.3 1010.3 0.2
22/08:52pm 27.9 30.1 26.1 90 1.3 E 26 39 14 21 1010.2 - 0.2
22/08:30pm 27.9 29.7 26.1 90 1.3 ESE 28 41 15 22 1010.0 - 0.2
22/08:00pm 27.9 30.5 26.1 90 1.3 E 24 32 13 17 1009.8 - 0.2
22/07:30pm 27.8 30.3 26.0 90 1.3 ESE 24 32 13 17 1009.5 - 0.2
22/07:25pm 27.7 30.2 25.9 90 1.3 ESE 24 32 13 17 1009.5 - 0.2
22/07:00pm 27.7 30.4 25.7 89 1.4 ESE 22 32 12 17 1009.3 - 0.2
22/06:30pm 28.0 30.3 25.6 87 1.7 E 24 35 13 19 1008.8 - 0.2
22/06:00pm 28.2 31.0 25.8 87 1.7 E 22 32 12 17 1008.7 1008.7 0.2
22/05:45pm 28.2 30.5 25.6 86 1.8 E 24 33 13 18 1008.7 - 0.2
22/05:30pm 28.3 30.9 25.5 85 2.0 E 22 32 12 17 1008.4 - 0.2
22/05:10pm 28.8 31.2 25.8 84 2.1 E 24 33 13 18 1008.4 - 0.2
22/05:00pm 29.2 31.7 26.0 83 2.3 E 24 33 13 18 1008.3 - 0.2
22/04:30pm 29.6 32.5 26.6 84 2.1 E 24 33 13 18 1008.0 - 0.2
22/04:27pm 29.4 31.8 26.4 84 2.1 E 26 33 14 18 1008.0 - 0.2
22/04:00pm 29.5 32.0 26.5 84 2.1 E 26 35 14 19 1007.7 - 0.2
22/03:32pm 29.7 32.3 26.7 84 2.2 E 26 35 14 19 1007.8 - 0.2
22/03:30pm 29.8 32.1 26.8 84 2.2 E 28 35 15 19 1007.8 - 0.2
22/03:00pm 29.7 31.9 26.7 84 2.2 E 28 37 15 20 1007.8 1007.8 0.2
22/02:30pm 29.8 32.6 27.0 85 2.0 E 26 37 14 20 1008.2 - 0.2
22/02:00pm 29.6 32.1 27.0 86 1.9 E 28 37 15 20 1008.6 - 0.2
22/01:30pm 29.3 32.4 26.9 87 1.7 E 24 35 13 19 1009.0 - 0.2
22/01:22pm 29.0 31.9 26.6 87 1.7 E 24 35 13 19 1009.0 - 0.2
22/01:07pm 29.0 31.6 26.6 87 1.7 E 26 35 14 19 1009.1 - 0.2
22/01:00pm 28.8 30.7 26.2 86 1.8 E 28 35 15 19 1009.2 - 0.2
22/12:30pm 30.0 33.8 27.8 88 1.6 E 24 37 13 20 1009.5 - 0.2
22/12:18pm 29.8 32.7 27.6 88 1.6 E 28 37 15 20 1009.6 - 0.2
22/12:02pm 29.0 31.8 27.0 89 1.4 E 26 35 14 19 1010.0 - 0.2
22/12:00pm 29.4 32.5 27.4 89 1.4 E 26 35 14 19 1010.0 1010.0 0.2
22/11:48am 29.3 32.1 27.5 90 1.3 E 28 35 15 19 1010.5 - 0.2
22/11:30am 28.8 31.6 27.0 90 1.3 E 26 33 14 18 1010.7 - 0.2
22/11:24am 28.7 32.0 27.1 91 1.1 E 24 32 13 17 1010.8 - 0.2
22/11:00am 28.7 32.9 27.1 91 1.1 E 19 26 10 14 1011.0 - 0.2
22/10:30am 28.6 32.2 27.0 91 1.1 ESE 22 30 12 16 1011.2 - 0.2
22/10:02am 28.5 33.1 27.1 92 1.0 E 17 22 9 12 1011.2 - 0.2
22/10:00am 28.5 33.1 27.1 92 1.0 E 17 24 9 13 1011.2 - 0.2
22/09:31am 28.6 32.7 27.2 92 1.0 ESE 20 28 11 15 1011.5 - 0.2
22/09:30am 28.7 32.9 27.3 92 1.0 ESE 20 28 11 15 1011.5 - 0.2
22/09:19am 28.3 32.8 26.9 92 1.0 E 17 24 9 13 1011.6 - 0.0
22/09:00am 28.0 32.4 26.8 93 0.9 E 17 22 9 12 1011.5 1011.5 1.4
22/08:53am 28.0 32.8 26.8 93 0.9 E 15 22 8 12 1011.5 - 1.4
22/08:30am 28.2 32.7 27.0 93 0.9 E 17 20 9 11 1011.0 - 1.4
22/08:00am 27.8 32.9 26.7 94 0.8 ENE 13 20 7 11 1010.8 - 1.4
22/07:30am 27.4 32.0 26.5 95 0.6 E 15 19 8 10 1010.9 - 1.4
22/07:00am 27.1 31.9 26.2 95 0.6 E 13 17 7 9 1010.7 - 1.4
22/06:38am 27.0 31.3 26.1 95 0.6 ENE 15 22 8 12 1010.0 - 1.4
22/06:30am 27.1 31.5 26.2 95 0.6 ENE 15 24 8 13 1010.0 - 1.4
22/06:00am 27.1 31.5 26.2 95 0.6 E 15 20 8 11 1009.5 1009.5 1.4
22/05:53am 27.1 31.5 26.2 95 0.6 E 15 19 8 10 1009.5 - 1.4
22/05:37am 27.0 31.7 26.1 95 0.6 E 13 19 7 10 1009.5 - 1.4
22/05:36am 27.0 31.7 26.1 95 0.6 E 13 19 7 10 1009.5 - 1.4
22/05:30am 27.0 31.3 26.1 95 0.6 E 15 19 8 10 1009.5 - 1.4
22/05:00am 26.8 30.5 25.8 94 0.7 E 17 24 9 13 1009.5 - 1.4
22/04:30am 26.3 30.1 25.3 94 0.7 E 15 20 8 11 1009.4 - 1.4
22/04:10am 26.2 28.9 25.0 93 0.8 E 20 28 11 15 1009.4 - 1.4
22/04:00am 26.2 28.1 25.0 93 0.8 E 24 33 13 18 1009.6 - 1.4
22/03:54am 26.2 27.2 24.8 92 1.0 E 28 39 15 21 1009.6 - 1.2
22/03:50am 26.3 27.0 24.9 92 1.0 E 30 39 16 21 1009.6 - 1.2
22/03:30am 27.2 30.6 25.8 92 1.0 E 19 30 10 16 1009.5 - 0.8
22/03:23am 27.4 31.6 26.0 92 1.0 E 15 22 8 12 1009.5 - 0.8
22/03:16am 27.5 31.8 26.1 92 1.0 E 15 22 8 12 1009.6 - 0.8
22/03:05am 27.5 31.7 25.9 91 1.1 E 15 20 8 11 1009.7 - 0.8
22/03:00am 27.5 31.3 25.9 91 1.1 E 17 20 9 11 1009.7 1009.7 0.8
22/02:30am 27.6 31.2 26.2 92 1.0 E 19 26 10 14 1009.6 - 0.8
22/02:09am 27.6 30.6 26.2 92 1.0 E 22 30 12 16 1009.8 - 0.8
22/02:00am 27.6 30.6 26.2 92 1.0 E 22 32 12 17 1009.8 - 0.8
22/01:30am 27.5 30.5 26.1 92 1.0 E 22 30 12 16 1009.6 - 0.8
22/01:00am 27.6 30.6 26.2 92 1.0 E 22 33 12 18 1009.9 - 0.8
22/12:30am 27.5 30.5 26.1 92 1.0 E 22 30 12 16 1010.3 - 0.8
22/12:09am 27.4 30.2 25.8 91 1.1 E 22 28 12 15 1010.3 - 0.8
22/12:07am 27.4 30.2 25.8 91 1.1 E 22 30 12 16 1010.4 - 0.8
22/12:00am 27.4 30.2 25.8 91 1.1 E 22 32 12 17 1010.3 1010.3 0.8
 
Date/Time
EST
Temp
°C
App
Temp
°C
Dew
Point
Rel
Hum
%
Delta-T
°C
Wind Press
QNH
hPa
Press
MSL
hPa
Rain
since 9 am
mm
Dir
 
Spd
km/h
Gust
km/h
Spd
kts
Gust
kts
21/11:46pm 27.5 30.4 25.9 91 1.1 E 22 32 12 17 1010.5 - 0.8
21/11:30pm 27.6 29.8 26.0 91 1.1 E 26 35 14 19 1010.6 - 0.8
21/11:00pm 27.4 29.9 26.0 92 1.0 ESE 24 32 13 17 1010.7 - 0.8
21/10:30pm 27.5 30.9 26.1 92 1.0 E 20 30 11 16 1010.7 - 0.8
21/10:13pm 27.3 30.5 25.9 92 1.0 ESE 20 28 11 15 1010.8 - 0.8
21/10:00pm 27.3 30.2 25.9 92 1.0 ESE 22 28 12 15 1010.9 - 0.8
21/09:30pm 27.3 30.4 25.7 91 1.1 ESE 20 30 11 16 1010.7 - 0.8
21/09:00pm 27.3 30.2 25.9 92 1.0 ESE 22 30 12 16 1010.4 1010.4 0.8
21/08:30pm 27.3 29.8 25.9 92 1.0 ESE 24 35 13 19 1010.0 - 0.8
21/08:00pm 27.1 30.8 25.7 92 1.0 ESE 17 24 9 13 1009.7 - 0.8
21/07:30pm 27.2 30.4 25.6 91 1.1 SE 19 24 10 13 1009.7 - 0.8
21/07:00pm 26.7 30.4 25.1 91 1.1 SE 15 24 8 13 1009.4 - 0.8
21/06:30pm 26.8 30.4 25.0 90 1.3 SSE 15 19 8 10 1009.0 - 0.8
21/06:00pm 27.5 30.6 25.7 90 1.3 ESE 20 32 11 17 1008.7 1008.7 0.8
21/05:30pm 27.7 30.9 25.9 90 1.3 ESE 20 30 11 16 1008.6 - 0.8
21/05:00pm 27.7 31.1 25.9 90 1.3 ESE 19 26 10 14 1008.6 - 0.8
21/04:30pm 27.8 31.2 26.2 91 1.1 ESE 20 26 11 14 1008.4 - 0.8
21/04:00pm 27.7 31.6 26.1 91 1.1 ESE 17 30 9 16 1008.3 - 0.8
21/03:30pm 27.7 31.4 26.3 92 1.0 ESE 19 24 10 13 1008.2 - 0.8
21/03:00pm 27.6 31.2 26.2 92 1.0 ESE 19 26 10 14 1008.3 1008.3 0.8
21/02:30pm 27.4 30.9 26.0 92 1.0 ESE 19 26 10 14 1008.7 - 0.8
21/02:00pm 26.8 29.6 25.0 90 1.3 ESE 19 26 10 14 1008.6 - 0.8
21/01:57pm 26.7 29.5 24.9 90 1.3 ESE 19 26 10 14 1008.6 - 0.8
21/01:39pm 26.7 28.7 24.5 88 1.5 ESE 22 32 12 17 1009.1 - 0.4
21/01:30pm 27.2 28.6 24.8 87 1.7 ESE 26 39 14 21 1009.1 - 0.2
21/01:00pm 28.4 29.3 25.8 86 1.8 ESE 32 44 17 24 1009.1 - 0.2
21/12:30pm 28.8 30.2 26.0 85 2.0 ESE 30 43 16 23 1009.5 - 0.2
21/12:00pm 28.9 30.9 26.3 86 1.9 ESE 28 39 15 21 1009.8 1009.8 0.2
21/11:30am 28.7 30.7 26.3 87 1.7 ESE 28 37 15 20 1010.2 - 0.2
21/11:00am 28.7 31.1 26.9 90 1.3 ESE 28 39 15 21 1010.6 - 0.2
21/10:30am 28.2 31.7 26.8 92 1.0 ESE 22 33 12 18 1010.9 - 0.2
21/10:00am 27.5 29.7 26.1 92 1.0 ESE 26 37 14 20 1010.8 - 0.2
21/09:30am 27.4 30.6 26.5 95 0.6 ESE 22 35 12 19 1010.8 - 0.2
21/09:00am 27.0 30.4 26.1 95 0.6 ESE 20 30 11 16 1010.6 1010.6 5.2
21/08:30am 26.5 29.7 25.6 95 0.6 ESE 19 24 10 13 1010.4 - 5.2
21/08:00am 26.0 28.7 25.1 95 0.6 ESE 20 30 11 16 1010.1 - 5.0
21/07:42am 26.0 28.9 25.1 95 0.6 ESE 19 28 10 15 1010.0 - 5.0
21/07:39am 25.9 28.6 25.0 95 0.6 ESE 20 28 11 15 1010.0 - 5.0
21/07:30am 25.9 28.6 25.0 95 0.6 ESE 20 32 11 17 1009.9 - 4.8
21/07:15am 26.1 28.8 25.1 94 0.7 ESE 20 32 11 17 1010.0 - 3.2
21/07:04am 26.2 29.0 25.2 94 0.7 ESE 20 32 11 17 1009.6 - 2.6
21/07:00am 26.2 28.6 25.2 94 0.7 ESE 22 32 12 17 1009.5 - 2.6
21/06:49am 26.0 28.7 25.0 94 0.7 ESE 20 33 11 18 1009.4 - 2.4
21/06:30am 26.1 27.9 24.9 93 0.8 ESE 24 37 13 20 1009.2 - 2.0
21/06:20am 26.2 29.0 25.0 93 0.8 ESE 19 26 10 14 1009.0 - 1.4
21/06:14am 26.2 28.9 25.0 93 0.8 ESE 20 28 11 15 1008.9 - 1.2
21/06:02am 26.2 28.5 25.0 93 0.8 ESE 22 33 12 18 1008.7 - 0.8
21/06:00am 26.2 28.9 25.0 93 0.8 ESE 20 32 11 17 1008.7 1008.7 0.8
21/05:30am 26.1 29.1 24.7 92 1.0 SE 17 24 9 13 1008.3 - 0.4
21/05:25am 25.9 28.8 24.5 92 1.0 SE 17 24 9 13 1008.3 - 0.4
21/05:00am 26.0 28.5 24.4 91 1.1 SE 19 28 10 15 1008.3 - 0.4
21/04:59am 26.0 28.5 24.4 91 1.1 SE 19 28 10 15 1008.3 - 0.4
21/04:30am 26.3 29.3 24.7 91 1.1 SE 17 24 9 13 1008.2 - 0.2
21/04:00am 26.1 29.0 24.5 91 1.1 SSE 17 24 9 13 1008.3 - 0.2
21/03:59am 26.1 29.0 24.5 91 1.1 SSE 17 24 9 13 1008.3 - 0.2
21/03:30am 26.0 28.9 24.4 91 1.1 SE 17 22 9 12 1008.4 - 0.2
21/03:14am 26.0 28.7 24.2 90 1.2 SSE 17 24 9 13 1008.5 - 0.2
21/03:00am 26.1 28.9 24.3 90 1.2 SE 17 26 9 14 1008.6 1008.6 0.2
21/02:30am 26.1 28.9 24.3 90 1.2 SE 17 28 9 15 1008.6 - 0.2
21/02:00am 26.0 27.8 24.2 90 1.2 ESE 22 30 12 16 1008.6 - 0.2
21/01:40am 25.7 27.8 23.7 89 1.4 SE 19 30 10 16 1008.8 - 0.2
21/01:30am 25.4 27.2 23.3 88 1.4 SE 19 26 10 14 1009.0 - 0.2
21/01:00am 25.7 27.5 23.2 86 1.7 SE 19 26 10 14 1009.3 - 0.2
21/12:30am 26.7 29.2 23.8 84 2.0 SE 17 26 9 14 1009.3 - 0.2
21/12:00am 26.3 28.3 23.6 85 1.8 SE 19 28 10 15 1009.6 1009.6 0.2
 
Date/Time
EST
Temp
°C
App
Temp
°C
Dew
Point
Rel
Hum
%
Delta-T
°C
Wind Press
QNH
hPa
Press
MSL
hPa
Rain
since 9 am
mm
Dir
 
Spd
km/h
Gust
km/h
Spd
kts
Gust
kts
20/11:30pm 26.7 28.8 23.8 84 2.0 SE 19 28 10 15 1009.9 - 0.2
20/11:00pm 26.4 28.2 23.3 83 2.1 SE 19 28 10 15 1010.0 - 0.2
20/10:30pm 27.0 28.3 23.3 80 2.5 SE 22 32 12 17 1010.1 - 0.2
20/10:00pm 27.0 27.5 23.3 80 2.5 SE 26 37 14 20 1010.1 - 0.2
20/09:30pm 27.1 27.6 23.3 80 2.6 SE 26 44 14 24 1010.1 - 0.2
20/09:00pm 27.0 27.9 23.3 80 2.5 ESE 24 43 13 23 1009.9 1009.9 0.2
20/08:30pm 26.9 27.7 23.2 80 2.5 ESE 24 39 13 21 1009.8 - 0.2
20/08:00pm 27.0 28.4 23.5 81 2.4 ESE 22 30 12 16 1009.7 - 0.2
20/07:30pm 27.0 28.0 23.5 81 2.4 ESE 24 35 13 19 1009.4 - 0.2
20/07:00pm 27.0 28.0 23.5 81 2.4 ESE 24 37 13 20 1008.8 - 0.2
20/06:30pm 27.0 27.7 23.7 82 2.3 ESE 26 43 14 23 1008.4 - 0.2

Other Formats:

Comma delimited format used in spreadsheet applications
http://www.bom.gov.au/fwo/IDQ60801/IDQ60801.94174.axf

JavaScript Object Notation format (JSON) in row-major order
http://www.bom.gov.au/fwo/IDQ60801/IDQ60801.94174.json